^^
LKKV - Karlovy Vary, Czech Republic
Entfernung von Station: O 36km
Aktualisierung: 25.11.2017 02:00
wolkig
wolkig
 Wind von SSW
Wind: SSW 7 km/h
Temperatur: 8°C
Windkühle: 7°C
Taupunkt: 6°C
Luftfeuchte: 87%
Luftdruck: 1011 hPa
Wolken: wolkig
Sicht: 10 km
Wolken Details: teils wolkig 488 m
wolkig 1006 m
2017/11/25 01:00 LKKV 250100Z 20004KT 140V240 9999 FEW016 SCT033 08/06 Q1011
EDQM - Hof, Germany
Entfernung von Station: W 40km
Aktualisierung: 24.11.2017 19:50
nicht aktuell
wolkig
wolkig
 Wind von SSW
Wind: SSW 20 km/h
Temperatur: 9°C
Windkühle: 6°C
Taupunkt: 6°C
Luftfeuchte: 82%
Luftdruck: 1012 hPa
Wolken: wolkig
Sicht: 10 km
Wolken Details: wolkig 488 m
2017/11/24 18:50 EDQM 241850Z 21011KT 9999 SCT016 09/06 Q1012
 
ETIC - Grafenwoehr, Germany
Entfernung von Station: SSW 72km
Aktualisierung: 25.11.2017 01:56
stark bewölkt
stark bewölkt
 Wind von SSO
Wind: SSO 7 km/h
Temperatur: 8°C
Windkühle: 7°C
Taupunkt: 8°C
Luftfeuchte: 100%
Luftdruck: 1011.2 hPa
Wolken: stark bewölkt
Sicht: 10 km
Wolken Details: stark bewölkt 2286 m
stark bewölkt 2743 m
2017/11/25 00:56 ETIC 250056Z AUTO 15004KT 9999 BKN075 BKN090 08/08 A2986 RMK AO2 RAE01DZB01E03DZB17E26 SLP117 P0000 T00770076 $
EDAC - Altenburg-Nobitz, Germany
Entfernung von Station: N 80km
Aktualisierung: 24.11.2017 17:20
nicht aktuell
Klar
Klar
 Wind von SSW
Wind: SSW 20 km/h
Temperatur: 13°C
Taupunkt: 8°C
Luftfeuchte: 72%
Luftdruck: 1010 hPa
Zusammenfassung: Klar
Sicht: mehr als 10 km
2017/11/24 16:20 EDAC 241620Z 21011KT CAVOK 13/08 Q1010
 
LKLN - Plzen Line, Czech Republic
Entfernung von Station: SO 88km
Aktualisierung: 25.11.2017 02:00
Bedeckt
Bedeckt
 Wind von WSW
Wind: WSW 9 km/h
Temperatur: 9°C
Windkühle: 7°C
Taupunkt: 6°C
Luftfeuchte: 82%
Luftdruck: 1013 hPa
Wolken: Bedeckt
Sicht: 10 km
Wolken Details: teils wolkig 884 m
Bedeckt 2926 m
2017/11/25 01:00 LKLN 250100Z AUTO 24005KT 9999 FEW029 OVC096 09/06 Q1013
ETIH - Hohenfels (usa-A, Germany
Entfernung von Station: SSW 124km
Aktualisierung: 25.11.2017 02:46
Nebel, stark bewölkt
Nebel, stark bewölkt
 Wind von calm
Wind: Windstill
Temperatur: 6°C
Taupunkt: 6°C
Luftfeuchte: 100%
Luftdruck: 1012.5 hPa
Zusammenfassung: Nebel
Wolken: stark bewölkt
Sicht: 5 km
Wolken Details: teils wolkig 91 m
stark bewölkt 1829 m
stark bewölkt 2286 m
2017/11/25 01:46 ETIH 250146Z AUTO 00000KT 5000 BR FEW003 BKN060 BKN075 06/06 A2990 RMK AO2 SLP132 $
 
EDDE - Erfurt/Bindersleben, Germany
Entfernung von Station: NW 129km
Aktualisierung: 25.11.2017 02:20
leichter Regen, Nebel, Bedeckt
leichter Regen, Nebel, Bedeckt
 Wind von NO
Wind: NO 6 km/h
Temperatur: 7°C
Taupunkt: 7°C
Luftfeuchte: 100%
Luftdruck: 1010 hPa
Zusammenfassung: leichter Regen, Nebel
Wolken: Bedeckt
Sicht: 1 km
Wolken Details: wolkig 30 m
Bedeckt 213 m
2017/11/25 01:20 EDDE 250120Z 04003KT 010V100 0900 R10/P2000N -RA FG SCT001 OVC007 07/07 Q1010
EDDP - Leipzig/Schkeudidtz, Germany
Entfernung von Station: N 129km
Aktualisierung: 25.11.2017 02:20
leichter Regen, Bedeckt
leichter Regen, Bedeckt
 Wind von OSO
Wind: OSO 9 km/h
Temperatur: 7°C
Windkühle: 6°C
Taupunkt: 7°C
Luftfeuchte: 100%
Luftdruck: 1011 hPa
Zusammenfassung: Nieselregen
Wolken: Bedeckt
Sicht: 10 km
Wolken Details: teils wolkig 152 m
Bedeckt 549 m
2017/11/25 01:20 EDDP 250120Z 12005KT 9999 -RA FEW005 OVC018 07/07 Q1011 TEMPO 3500 -RA BKN005
 
EDDN - Nuernberg, Germany
Entfernung von Station: SW 130km
Aktualisierung: 25.11.2017 02:20
stark bewölkt
stark bewölkt
 Wind von S
Wind: S 11 km/h
Temperatur: 9°C
Windkühle: 7°C
Taupunkt: 8°C
Luftfeuchte: 94%
Luftdruck: 1011 hPa
Wolken: stark bewölkt
Sicht: 10 km
Wolken Details: teils wolkig 1311 m
stark bewölkt 1707 m
2017/11/25 01:20 EDDN 250120Z 17006KT 9999 FEW043 BKN056 09/08 Q1011
LKPR - Prague/Ruzyne, Czech Republic
Entfernung von Station: O 133km
Aktualisierung: 25.11.2017 02:30
stark bewölkt
stark bewölkt
 Wind von S
Wind: S 9 km/h
Temperatur: 10°C
Windkühle: 9°C
Taupunkt: 6°C
Luftfeuchte: 76%
Luftdruck: 1012 hPa
Wolken: stark bewölkt
Sicht: 10 km
Wolken Details: stark bewölkt 914 m
2017/11/25 01:30 LKPR 250130Z 19005KT 9999 BKN030 10/06 Q1012 NOSIG
 
EDDC - Dresden/Klotzsche, Germany
Entfernung von Station: NO 134km
Aktualisierung: 25.11.2017 02:20
leichter Regen, stark bewölkt
leichter Regen, stark bewölkt
 Wind von SSO
Wind: SSO 13 km/h
Temperatur: 7°C
Windkühle: 5°C
Taupunkt: 6°C
Luftfeuchte: 93%
Luftdruck: 1011 hPa
Zusammenfassung: Nieselregen
Wolken: stark bewölkt
Sicht: 8 km
Wolken Details: stark bewölkt 1219 m
2017/11/25 01:20 EDDC 250120Z 15007KT 8000 -RA BKN040 07/06 Q1011
Besucherstatistik
Besucher gesamt: 847.322
Besucher heute: 179
Besucher gestern: 1.394
Besucher pro Tag: 919,58
gerade online: 20
max. online: 156
Seitenaufrufe diese Seite: 2.851
counter Statistiken